Time;durP1;ratioP1;P1;durP2;ratioP2;P2;SDS_P1;SDS_P2;PMS_P1;PMS_P2;Temp;Humidity;BMP_temperature;BMP_pressure;BME280_temperature;BME280_humidity;BME280_pressure;Samples;Min_cycle;Max_cycle;Signal;HPM_P1;HPM_P2
2022/09/16 00:01:18;;;;;;;3.88;0.95;;;11.70;99.90;;;;;;5096825;28;20040;-75
2022/09/16 00:03:44;;;;;;;5.55;1.27;;;11.70;99.90;;;;;;5107850;28;20079;-75
2022/09/16 00:06:24;;;;;;;3.28;1.13;;;11.70;99.90;;;;;;5091508;28;20035;-75
2022/09/16 00:08:51;;;;;;;3.72;1.10;;;11.70;99.90;;;;;;5111753;28;20114;-74
2022/09/16 00:11:17;;;;;;;5.88;1.33;;;11.70;99.90;;;;;;5111902;28;20050;-75
2022/09/16 00:13:43;;;;;;;3.92;0.90;;;11.70;99.90;;;;;;5112070;28;20035;-75
2022/09/16 00:16:11;;;;;;;4.10;0.85;;;11.60;99.90;;;;;;5105791;28;20034;-75
2022/09/16 00:18:37;;;;;;;5.30;0.90;;;11.60;99.90;;;;;;5089635;28;20086;-75
2022/09/16 00:21:07;;;;;;;5.10;0.90;;;11.60;99.90;;;;;;5109125;28;20036;-75
2022/09/16 00:23:32;;;;;;;4.05;0.90;;;11.60;99.90;;;;;;5111766;28;20126;-76
2022/09/16 00:25:58;;;;;;;3.55;0.80;;;11.60;99.90;;;;;;5093754;28;20122;-75
2022/09/16 00:28:23;;;;;;;4.25;0.88;;;11.60;99.90;;;;;;5110647;28;20400;-76
2022/09/16 00:30:49;;;;;;;5.45;1.30;;;11.60;99.90;;;;;;5108716;28;20035;-76
2022/09/16 00:33:16;;;;;;;3.20;0.80;;;11.60;99.90;;;;;;5098794;28;20039;-76
2022/09/16 00:35:41;;;;;;;3.67;0.90;;;11.70;99.90;;;;;;5085803;28;20060;-75
2022/09/16 00:38:07;;;;;;;5.00;0.85;;;11.70;99.90;;;;;;5110976;28;20039;-75
2022/09/16 00:40:33;;;;;;;2.40;0.60;;;11.70;99.90;;;;;;5110046;28;20040;-75
2022/09/16 00:42:59;;;;;;;3.17;0.90;;;11.70;99.90;;;;;;5109230;28;20067;-76
2022/09/16 00:45:30;;;;;;;5.10;1.15;;;11.80;99.90;;;;;;5094603;28;20036;-76
2022/09/16 00:48:00;;;;;;;2.45;0.80;;;11.80;99.90;;;;;;5098688;28;20044;-76
2022/09/16 00:50:45;;;;;;;4.03;1.05;;;11.70;99.90;;;;;;5108735;28;20118;-76
2022/09/16 00:53:19;;;;;;;2.83;0.80;;;11.80;99.90;;;;;;5073518;28;20039;-75
2022/09/16 00:55:45;;;;;;;2.80;0.80;;;11.70;99.90;;;;;;5109136;28;20046;-75
2022/09/16 00:58:24;;;;;;;2.10;0.73;;;11.70;99.90;;;;;;5090870;28;20032;-76
2022/09/16 01:00:49;;;;;;;4.60;0.90;;;11.70;99.90;;;;;;5111088;28;20050;-76
2022/09/16 01:03:16;;;;;;;4.88;1.00;;;11.80;99.90;;;;;;5109475;28;20048;-76
2022/09/16 01:05:42;;;;;;;3.75;0.68;;;11.70;99.90;;;;;;5100194;28;20127;-76
2022/09/16 01:08:08;;;;;;;3.00;0.75;;;11.70;99.90;;;;;;5104824;28;20040;-76
2022/09/16 01:10:34;;;;;;;3.08;0.73;;;11.70;99.90;;;;;;5092387;28;20035;-76
2022/09/16 01:13:05;;;;;;;3.75;0.90;;;11.60;99.90;;;;;;5086964;28;20404;-76
2022/09/16 01:15:43;;;;;;;3.72;0.85;;;11.60;99.90;;;;;;5101270;28;20035;-76
2022/09/16 01:18:27;;;;;;;1.90;0.80;;;11.60;99.90;;;;;;5088211;28;20580;-76
2022/09/16 01:21:02;;;;;;;;;;;11.60;99.90;;;;;;5109715;28;20035;-77
2022/09/16 01:24:02;;;;;;;2.65;0.70;;;11.60;99.90;;;;;;5105317;28;20386;-76
2022/09/16 01:26:44;;;;;;;4.38;0.77;;;11.50;99.90;;;;;;5106949;28;20044;-76
2022/09/16 01:29:39;;;;;;;3.65;0.88;;;11.50;99.90;;;;;;5108572;28;20040;-76
2022/09/16 01:32:28;;;;;;;8.00;1.00;;;11.40;99.90;;;;;;5073114;28;20169;-76
2022/09/16 01:35:31;;;;;;;3.17;0.95;;;11.40;99.90;;;;;;5101879;28;20118;-75
2022/09/16 01:38:09;;;;;;;3.60;0.93;;;11.40;99.90;;;;;;5102583;28;20057;-75
2022/09/16 01:40:50;;;;;;;3.40;0.90;;;11.40;99.90;;;;;;5095654;28;20093;-76
2022/09/16 01:43:39;;;;;;;3.08;0.73;;;11.40;99.90;;;;;;5096756;28;20526;-76
2022/09/16 01:46:29;;;;;;;3.38;0.75;;;11.30;99.90;;;;;;5101342;28;20043;-76
2022/09/16 01:49:00;;;;;;;3.70;0.85;;;11.40;99.90;;;;;;5073774;28;20040;-75
2022/09/16 01:51:35;;;;;;;1.77;0.82;;;11.30;99.90;;;;;;5089462;28;20444;-76
2022/09/16 01:54:19;;;;;;;4.90;1.10;;;11.30;99.90;;;;;;5102356;28;20040;-76
2022/09/16 01:56:56;;;;;;;4.13;1.02;;;11.30;99.90;;;;;;5085313;28;20092;-75
2022/09/16 01:59:47;;;;;;;5.68;0.82;;;11.30;99.90;;;;;;5078103;28;20082;-75
2022/09/16 02:02:22;;;;;;;6.32;1.05;;;11.30;99.90;;;;;;5089508;28;20055;-76
2022/09/16 02:04:52;;;;;;;7.03;1.20;;;11.30;99.90;;;;;;5082985;28;20035;-75
2022/09/16 02:07:23;;;;;;;3.33;0.98;;;11.20;99.90;;;;;;5094729;28;20066;-75
2022/09/16 02:09:53;;;;;;;2.65;0.95;;;11.20;99.90;;;;;;5107655;28;20894;-75
2022/09/16 02:12:27;;;;;;;4.72;0.95;;;11.20;99.90;;;;;;5099742;28;20051;-75
2022/09/16 02:14:56;;;;;;;3.20;0.90;;;11.30;99.90;;;;;;5108275;28;20545;-75
2022/09/16 02:17:25;;;;;;;6.50;1.67;;;11.30;99.90;;;;;;5084852;28;20035;-77
2022/09/16 02:19:59;;;;;;;3.45;0.98;;;11.30;99.90;;;;;;5091461;28;20042;-77
2022/09/16 02:22:35;;;;;;;3.80;0.80;;;11.30;99.90;;;;;;5105953;28;20039;-76
2022/09/16 02:25:03;;;;;;;5.03;0.90;;;11.20;99.90;;;;;;5107897;28;20050;-75
2022/09/16 02:27:31;;;;;;;2.92;0.90;;;11.20;99.90;;;;;;5110022;28;20039;-76
2022/09/16 02:30:09;;;;;;;3.42;0.77;;;11.20;99.90;;;;;;5101524;28;20522;-76
2022/09/16 02:32:39;;;;;;;4.55;0.82;;;11.20;99.90;;;;;;5101382;28;20039;-76
2022/09/16 02:35:08;;;;;;;3.92;1.13;;;11.20;99.90;;;;;;5109851;28;20088;-77
2022/09/16 02:37:49;;;;;;;3.30;0.80;;;11.20;99.90;;;;;;5109999;28;20044;-76
2022/09/16 02:40:28;;;;;;;4.80;1.33;;;11.10;99.90;;;;;;5086612;28;20032;-76
2022/09/16 02:42:56;;;;;;;6.80;1.27;;;11.10;99.90;;;;;;5076021;28;20127;-76
2022/09/16 02:45:29;;;;;;;6.72;0.80;;;11.20;99.90;;;;;;5089596;28;20036;-75
2022/09/16 02:48:07;;;;;;;5.53;0.80;;;11.10;99.90;;;;;;5095786;28;20051;-76
2022/09/16 02:50:41;;;;;;;4.32;1.00;;;11.10;99.90;;;;;;5106545;28;20044;-76
2022/09/16 02:53:28;;;;;;;6.95;0.90;;;11.10;99.90;;;;;;5102724;28;20117;-76
2022/09/16 02:56:07;;;;;;;6.88;1.00;;;11.10;99.90;;;;;;5089421;28;20036;-76
2022/09/16 02:58:33;;;;;;;4.80;0.90;;;11.10;99.90;;;;;;5089468;28;20090;-76
2022/09/16 03:00:59;;;;;;;4.22;0.82;;;11.10;99.90;;;;;;5104648;28;20067;-76
2022/09/16 03:03:25;;;;;;;3.08;0.90;;;11.10;99.90;;;;;;5110647;28;20222;-76
2022/09/16 03:06:11;;;;;;;4.50;0.82;;;11.10;99.90;;;;;;5092650;28;20523;-75
2022/09/16 03:08:38;;;;;;;4.20;0.70;;;11.10;99.90;;;;;;5093180;28;20067;-75
2022/09/16 03:11:31;;;;;;;5.60;0.88;;;11.10;99.90;;;;;;5094613;28;20047;-76
2022/09/16 03:14:09;;;;;;;3.40;1.20;;;11.10;99.90;;;;;;5075064;28;20058;-75
2022/09/16 03:17:01;;;;;;;4.68;1.20;;;11.10;99.90;;;;;;5092720;28;20282;-76
2022/09/16 03:20:06;;;;;;;2.40;0.75;;;11.00;99.90;;;;;;5069900;28;20048;-75
2022/09/16 03:23:01;;;;;;;6.13;1.00;;;11.00;99.90;;;;;;5107924;28;20118;-76
2022/09/16 03:25:51;;;;;;;2.63;0.73;;;10.90;99.90;;;;;;5113027;28;20036;-75
2022/09/16 03:28:48;;;;;;;7.32;1.05;;;10.90;99.90;;;;;;5095851;28;20092;-76
2022/09/16 03:31:22;;;;;;;4.82;0.70;;;10.80;99.90;;;;;;5100752;28;20150;-75
2022/09/16 03:33:56;;;;;;;6.28;0.88;;;10.80;99.90;;;;;;5089312;28;20039;-75
2022/09/16 03:36:29;;;;;;;6.05;1.20;;;10.70;99.90;;;;;;5095164;28;20062;-75
2022/09/16 03:38:57;;;;;;;2.55;0.95;;;10.70;99.90;;;;;;5111562;28;20032;-75
2022/09/16 03:41:23;;;;;;;6.50;1.35;;;10.60;99.90;;;;;;5095247;28;20472;-76
2022/09/16 03:43:56;;;;;;;3.47;0.85;;;10.60;99.90;;;;;;5110807;28;20123;-75
2022/09/16 03:46:22;;;;;;;4.60;0.85;;;10.60;99.90;;;;;;5107226;28;20058;-76
2022/09/16 03:48:47;;;;;;;5.25;0.95;;;10.50;99.90;;;;;;5095659;28;20047;-75
2022/09/16 03:51:13;;;;;;;6.20;1.02;;;10.50;99.90;;;;;;5095341;28;20046;-75
2022/09/16 03:53:39;;;;;;;7.53;0.95;;;10.50;99.90;;;;;;5081422;28;20040;-75
2022/09/16 03:56:05;;;;;;;6.10;1.00;;;10.60;99.90;;;;;;5107389;28;20051;-75
2022/09/16 03:58:30;;;;;;;5.35;0.90;;;10.60;99.90;;;;;;5110707;28;20039;-75
2022/09/16 04:00:56;;;;;;;3.67;0.93;;;10.50;99.90;;;;;;5111930;28;20050;-76
2022/09/16 04:03:21;;;;;;;4.78;1.10;;;10.50;99.90;;;;;;5104701;28;20054;-75
2022/09/16 04:05:55;;;;;;;6.63;1.13;;;10.50;99.90;;;;;;5111130;28;20044;-75
2022/09/16 04:08:22;;;;;;;3.85;0.80;;;10.40;99.90;;;;;;5105121;28;20071;-75
2022/09/16 04:11:14;;;;;;;6.10;1.55;;;10.40;99.90;;;;;;5088149;28;20051;-75
2022/09/16 04:13:39;;;;;;;6.28;1.10;;;10.40;99.90;;;;;;5107092;28;20104;-75
2022/09/16 04:16:05;;;;;;;6.30;1.08;;;10.40;99.90;;;;;;5108797;28;20591;-75
2022/09/16 04:18:31;;;;;;;4.35;0.90;;;10.30;99.90;;;;;;5111830;28;20096;-76
2022/09/16 04:20:58;;;;;;;9.52;1.45;;;10.30;99.90;;;;;;5109875;28;20051;-75
2022/09/16 04:23:25;;;;;;;5.93;1.10;;;10.30;99.90;;;;;;5108269;28;20054;-76
2022/09/16 04:25:55;;;;;;;6.78;1.10;;;10.20;99.90;;;;;;5094534;28;20040;-76
2022/09/16 04:28:21;;;;;;;6.47;1.08;;;10.20;99.90;;;;;;5109562;28;20058;-75
2022/09/16 04:30:46;;;;;;;5.60;0.90;;;10.20;99.90;;;;;;5103848;28;20032;-75
2022/09/16 04:33:12;;;;;;;4.70;1.10;;;10.10;99.90;;;;;;5087201;28;20063;-76
2022/09/16 04:35:37;;;;;;;4.90;1.27;;;10.10;99.90;;;;;;5110859;28;20403;-75
2022/09/16 04:38:04;;;;;;;4.25;0.90;;;10.10;99.90;;;;;;5110419;28;20385;-75
2022/09/16 04:40:29;;;;;;;8.93;1.23;;;10.10;99.90;;;;;;5108061;28;20044;-75
2022/09/16 04:42:55;;;;;;;6.57;0.90;;;10.10;99.90;;;;;;5101816;28;20058;-75
2022/09/16 04:45:20;;;;;;;4.97;1.13;;;10.10;99.90;;;;;;5106221;28;20036;-75
2022/09/16 04:47:46;;;;;;;7.60;1.38;;;10.10;99.90;;;;;;5111518;28;20043;-75
2022/09/16 04:50:11;;;;;;;7.47;1.20;;;10.10;99.90;;;;;;5090166;28;20051;-75
2022/09/16 04:52:37;;;;;;;6.80;1.15;;;10.10;99.90;;;;;;5104790;28;20103;-76
2022/09/16 04:55:03;;;;;;;5.95;1.20;;;10.10;99.90;;;;;;5094084;28;20039;-75
2022/09/16 04:57:32;;;;;;;8.30;1.75;;;10.20;99.90;;;;;;5084127;28;20071;-75
2022/09/16 04:59:57;;;;;;;9.40;1.08;;;10.20;99.90;;;;;;5093910;28;20044;-76
2022/09/16 05:02:23;;;;;;;8.48;1.35;;;10.30;99.90;;;;;;5088165;28;20047;-76
2022/09/16 05:04:49;;;;;;;9.73;1.38;;;10.40;99.90;;;;;;5100252;28;20050;-75
2022/09/16 05:07:14;;;;;;;9.43;1.20;;;10.30;99.90;;;;;;5088895;28;20047;-75
2022/09/16 05:09:40;;;;;;;17.50;1.40;;;10.30;99.90;;;;;;5109568;28;20451;-75
2022/09/16 05:12:06;;;;;;;9.82;1.20;;;10.30;99.90;;;;;;5102003;28;20039;-75
2022/09/16 05:14:31;;;;;;;6.07;0.90;;;10.30;99.90;;;;;;5109494;28;20031;-75
2022/09/16 05:16:57;;;;;;;8.23;1.67;;;10.30;99.90;;;;;;5102823;28;20034;-75
2022/09/16 05:19:22;;;;;;;9.65;1.48;;;10.20;99.90;;;;;;5106126;28;20028;-75
2022/09/16 05:21:48;;;;;;;6.15;1.48;;;10.20;99.90;;;;;;5107477;28;20504;-75
2022/09/16 05:24:14;;;;;;;10.90;1.42;;;10.20;99.90;;;;;;5079707;28;20087;-75
2022/09/16 05:26:41;;;;;;;7.97;1.15;;;10.20;99.90;;;;;;5085406;28;20400;-75
2022/09/16 05:29:13;;;;;;;12.00;2.28;;;10.10;99.90;;;;;;5102044;28;20649;-75
2022/09/16 05:31:40;;;;;;;4.28;1.20;;;10.10;99.90;;;;;;5108011;28;20401;-75
2022/09/16 05:34:14;;;;;;;7.85;1.05;;;10.10;99.90;;;;;;5088634;28;20034;-75
2022/09/16 05:36:42;;;;;;;;;;;10.10;99.90;;;;;;5102303;28;20111;-76
2022/09/16 05:39:10;;;;;;;7.00;1.27;;;10.10;99.90;;;;;;5106026;28;20015;-76
2022/09/16 05:41:36;;;;;;;6.93;1.35;;;10.10;99.90;;;;;;5107629;28;20035;-75
2022/09/16 05:44:02;;;;;;;10.00;1.55;;;10.20;99.90;;;;;;5084382;28;20032;-76
2022/09/16 05:46:28;;;;;;;8.90;1.50;;;10.20;99.90;;;;;;5110550;28;20058;-75
2022/09/16 05:48:53;;;;;;;5.10;1.10;;;10.20;99.90;;;;;;5108198;28;20035;-75
2022/09/16 05:51:21;;;;;;;6.80;1.35;;;10.30;99.90;;;;;;5106133;28;20097;-76
2022/09/16 05:53:47;;;;;;;8.93;1.25;;;10.20;99.90;;;;;;5098621;28;20075;-76
2022/09/16 05:56:16;;;;;;;4.28;0.98;;;10.20;99.90;;;;;;5104854;28;20031;-76
2022/09/16 05:58:42;;;;;;;10.07;1.50;;;10.30;99.90;;;;;;5100986;28;20035;-76
2022/09/16 06:01:22;;;;;;;7.70;1.17;;;10.30;99.90;;;;;;5103710;28;20040;-75
2022/09/16 06:03:49;;;;;;;6.25;1.63;;;10.40;99.90;;;;;;5090691;28;20042;-76
2022/09/16 06:06:23;;;;;;;9.70;1.63;;;10.50;99.90;;;;;;5090675;28;20044;-75
2022/09/16 06:08:49;;;;;;;8.50;1.50;;;10.50;99.90;;;;;;5090673;28;20036;-76
2022/09/16 06:11:15;;;;;;;9.35;1.48;;;10.60;99.90;;;;;;5094539;28;20579;-76
2022/09/16 06:13:41;;;;;;;7.85;1.20;;;10.60;99.90;;;;;;5090901;28;20067;-75
2022/09/16 06:16:08;;;;;;;7.38;1.67;;;10.70;99.90;;;;;;5075758;28;20077;-75
2022/09/16 06:18:35;;;;;;;9.60;2.00;;;10.70;99.90;;;;;;5091202;28;20032;-76
2022/09/16 06:21:09;;;;;;;11.73;1.60;;;10.70;99.90;;;;;;5091862;28;20565;-76
2022/09/16 06:23:36;;;;;;;12.25;1.92;;;10.70;99.90;;;;;;5091470;28;20216;-75
2022/09/16 06:26:05;;;;;;;12.93;1.55;;;10.70;99.90;;;;;;5072173;28;20105;-75
2022/09/16 06:28:31;;;;;;;4.80;1.52;;;10.70;99.90;;;;;;5096673;28;20031;-76
2022/09/16 06:31:09;;;;;;;12.07;1.83;;;10.80;99.90;;;;;;5071698;28;20036;-76
2022/09/16 06:33:35;;;;;;;8.82;1.27;;;10.90;99.90;;;;;;5107740;28;20044;-75
2022/09/16 06:36:05;;;;;;;7.18;1.58;;;10.90;99.90;;;;;;5093598;28;20044;-76
2022/09/16 06:38:31;;;;;;;5.82;1.25;;;11.00;99.90;;;;;;5094419;28;20042;-75
2022/09/16 06:41:01;;;;;;;10.07;1.50;;;11.10;99.90;;;;;;5099914;28;20044;-76
2022/09/16 06:43:27;;;;;;;9.25;1.67;;;11.30;99.90;;;;;;5097672;28;20564;-75
2022/09/16 06:45:58;;;;;;;5.68;1.55;;;11.40;99.90;;;;;;5098189;28;20036;-75
2022/09/16 06:48:24;;;;;;;9.93;1.30;;;11.50;99.90;;;;;;5096038;28;20039;-76
2022/09/16 06:51:00;;;;;;;7.18;1.30;;;11.70;99.90;;;;;;5095739;28;20038;-76
2022/09/16 06:53:26;;;;;;;7.78;1.80;;;11.80;99.90;;;;;;5097963;28;20047;-76
2022/09/16 06:55:51;;;;;;;10.02;1.30;;;11.90;99.90;;;;;;5111567;28;20036;-76
2022/09/16 06:58:17;;;;;;;7.65;1.30;;;12.00;99.90;;;;;;5098705;28;20047;-76
2022/09/16 07:00:42;;;;;;;7.78;1.60;;;12.10;99.90;;;;;;5079909;28;20035;-76
2022/09/16 07:03:08;;;;;;;7.47;1.60;;;12.10;99.90;;;;;;5106385;28;20451;-76
2022/09/16 07:05:34;;;;;;;8.48;1.38;;;12.20;99.90;;;;;;5099435;28;20091;-76
2022/09/16 07:07:59;;;;;;;10.27;1.33;;;12.40;99.90;;;;;;5094316;28;20088;-78
2022/09/16 07:10:25;;;;;;;9.90;1.73;;;12.60;99.90;;;;;;5091081;28;20046;-77
2022/09/16 07:12:50;;;;;;;10.38;1.58;;;12.80;99.90;;;;;;5096173;28;20043;-77
2022/09/16 07:15:16;;;;;;;6.70;1.17;;;12.80;99.90;;;;;;5104897;28;20042;-77
2022/09/16 07:17:42;;;;;;;9.32;1.70;;;12.80;99.90;;;;;;5099275;28;20031;-77
2022/09/16 07:20:08;;;;;;;11.52;1.92;;;12.70;99.90;;;;;;5108512;27;20488;-76
2022/09/16 07:22:34;;;;;;;12.30;1.70;;;12.60;99.90;;;;;;5093978;28;20035;-79
2022/09/16 07:24:59;;;;;;;10.20;2.08;;;12.70;99.90;;;;;;5107164;27;20039;-79
2022/09/16 07:27:25;;;;;;;10.40;1.67;;;12.80;99.90;;;;;;5107454;28;20047;-78
2022/09/16 07:29:52;;;;;;;10.90;1.48;;;12.90;99.90;;;;;;5094417;28;20035;-80
2022/09/16 07:32:18;;;;;;;13.20;1.52;;;13.00;99.90;;;;;;5102157;27;20043;-79
2022/09/16 07:34:44;;;;;;;10.63;1.77;;;13.20;99.90;;;;;;5107629;28;20448;-79
2022/09/16 07:37:10;;;;;;;14.18;1.70;;;13.40;99.90;;;;;;5112601;28;20024;-79
2022/09/16 07:39:36;;;;;;;8.27;1.42;;;13.60;99.90;;;;;;5121153;27;20039;-79
2022/09/16 07:42:03;;;;;;;11.23;1.70;;;13.90;99.90;;;;;;5101673;28;20039;-79
2022/09/16 07:44:28;;;;;;;10.23;1.75;;;14.10;99.90;;;;;;5104779;28;20048;-79
2022/09/16 07:46:54;;;;;;;12.23;2.22;;;14.20;99.90;;;;;;5100657;28;20144;-78
2022/09/16 07:49:20;;;;;;;10.93;2.15;;;14.10;99.90;;;;;;5112911;28;20039;-79
2022/09/16 07:51:46;;;;;;;7.68;1.38;;;13.70;99.90;;;;;;5112766;28;20046;-80
2022/09/16 07:54:15;;;;;;;6.88;1.13;;;13.40;99.90;;;;;;5097437;28;20514;-79
2022/09/16 07:56:42;;;;;;;11.57;1.80;;;13.20;99.90;;;;;;5097680;28;20031;-77
2022/09/16 07:59:12;;;;;;;7.82;1.45;;;13.10;99.90;;;;;;5102268;28;20090;-77
2022/09/16 08:01:37;;;;;;;10.48;1.50;;;13.10;99.90;;;;;;5102798;28;20661;-78
2022/09/16 08:04:03;;;;;;;8.90;1.45;;;13.10;99.90;;;;;;5107307;28;20034;-78
2022/09/16 08:06:30;;;;;;;10.30;1.80;;;13.00;99.90;;;;;;5084982;28;20039;-78
2022/09/16 08:08:58;;;;;;;9.85;1.80;;;13.10;99.90;;;;;;5100989;28;20433;-78
2022/09/16 08:11:26;;;;;;;11.65;2.47;;;13.10;99.90;;;;;;5084117;28;20028;-78
2022/09/16 08:13:51;;;;;;;11.52;2.10;;;13.30;99.90;;;;;;5100592;28;20165;-79
2022/09/16 08:16:20;;;;;;;9.50;1.50;;;13.50;99.90;;;;;;5084529;28;20039;-78
2022/09/16 08:18:49;;;;;;;15.75;1.80;;;13.60;99.90;;;;;;5107193;28;20040;-79
2022/09/16 08:21:17;;;;;;;7.00;1.90;;;13.80;99.90;;;;;;5106444;28;20576;-78
2022/09/16 08:23:43;;;;;;;14.13;2.28;;;14.00;99.90;;;;;;5106887;28;20047;-79
2022/09/16 08:26:10;;;;;;;11.38;2.15;;;14.20;99.90;;;;;;5099114;28;20031;-78
2022/09/16 08:28:37;;;;;;;11.65;2.25;;;14.30;99.90;;;;;;5101686;28;20118;-77
2022/09/16 08:31:03;;;;;;;8.50;2.13;;;14.40;99.90;;;;;;5104400;28;20036;-77
2022/09/16 08:33:29;;;;;;;9.38;1.73;;;14.50;99.90;;;;;;5094192;28;20042;-77
2022/09/16 08:36:07;;;;;;;11.07;1.80;;;14.60;99.90;;;;;;5089775;28;20492;-76
2022/09/16 08:38:33;;;;;;;14.05;1.80;;;14.60;99.90;;;;;;5108558;28;20043;-77
2022/09/16 08:41:27;;;;;;;10.38;1.65;;;14.70;99.90;;;;;;5094123;28;20400;-77
2022/09/16 08:44:27;;;;;;;10.80;1.70;;;14.70;99.90;;;;;;5105259;28;20043;-76
2022/09/16 08:47:00;;;;;;;9.23;1.50;;;14.80;99.90;;;;;;5084072;28;20032;-78
2022/09/16 08:49:37;;;;;;;9.60;1.48;;;14.90;99.90;;;;;;5085059;28;20039;-78
2022/09/16 08:52:10;;;;;;;8.75;1.70;;;15.00;99.90;;;;;;5081331;28;20072;-78
2022/09/16 08:54:47;;;;;;;8.40;1.73;;;15.10;99.90;;;;;;5097475;28;20032;-78
2022/09/16 08:57:24;;;;;;;9.18;1.40;;;15.10;99.90;;;;;;5103819;28;20040;-79
2022/09/16 09:00:12;;;;;;;7.72;1.40;;;15.10;99.90;;;;;;5076446;28;20036;-81
2022/09/16 09:03:07;;;;;;;6.75;1.30;;;15.30;99.90;;;;;;5083892;28;20036;-80
2022/09/16 09:05:39;;;;;;;8.50;1.50;;;15.30;99.90;;;;;;5051231;28;20044;-80
2022/09/16 09:08:23;;;;;;;10.38;1.40;;;15.40;99.90;;;;;;5103665;28;20046;-79
2022/09/16 09:10:58;;;;;;;;;;;15.50;99.90;;;;;;5103448;28;20050;-80
2022/09/16 09:13:55;;;;;;;8.45;1.77;;;15.50;99.90;;;;;;5104369;28;19926;-78
2022/09/16 09:17:00;;;;;;;7.30;1.55;;;15.50;99.90;;;;;;5080846;28;20080;-79
2022/09/16 09:19:51;;;;;;;15.48;1.35;;;15.50;99.90;;;;;;5098184;28;20036;-80
2022/09/16 09:22:35;;;;;;;10.32;1.50;;;15.50;99.90;;;;;;5100613;28;20119;-84
2022/09/16 09:25:18;;;;;;;;;;;15.60;99.90;;;;;;5110363;28;20039;-80
2022/09/16 09:27:47;;;;;;;13.75;1.95;;;15.70;99.90;;;;;;5084443;28;19915;-78
2022/09/16 09:30:25;;;;;;;12.55;1.35;;;15.90;99.90;;;;;;5075947;28;20036;-79
2022/09/16 09:33:16;;;;;;;12.15;2.25;;;16.10;99.90;;;;;;5102059;28;20553;-79
2022/09/16 09:36:04;;;;;;;10.10;2.25;;;15.90;99.90;;;;;;5102941;28;20127;-76
2022/09/16 09:39:06;;;;;;;15.15;2.95;;;15.50;99.90;;;;;;5101823;28;20071;-78
2022/09/16 09:41:41;;;;;;;9.25;1.83;;;15.20;99.90;;;;;;5104450;28;20027;-80
2022/09/16 09:44:25;;;;;;;13.82;1.85;;;15.30;99.90;;;;;;5105172;28;20032;-78
2022/09/16 09:46:55;;;;;;;11.15;1.63;;;15.50;99.90;;;;;;5100906;28;20035;-78
2022/09/16 09:49:36;;;;;;;9.45;1.92;;;15.70;99.90;;;;;;5094010;28;20070;-81
2022/09/16 09:52:14;;;;;;;6.40;1.10;;;16.00;99.90;;;;;;5096005;28;20504;-79
2022/09/16 09:54:46;;;;;;;11.85;1.90;;;15.80;99.90;;;;;;5103886;28;20051;-80
2022/09/16 09:57:24;;;;;;;8.02;1.55;;;15.40;99.90;;;;;;5110131;28;20031;-81
2022/09/16 10:00:07;;;;;;;8.18;1.52;;;15.40;99.90;;;;;;5107427;28;20032;-78
2022/09/16 10:02:36;;;;;;;17.20;2.30;;;15.50;99.90;;;;;;5094154;28;20044;-78
2022/09/16 10:05:02;;;;;;;12.25;1.60;;;15.60;99.90;;;;;;5110209;28;20042;-77
2022/09/16 10:07:27;;;;;;;8.23;1.80;;;15.70;99.90;;;;;;5094441;28;20126;-80
2022/09/16 10:10:14;;;;;;;8.18;1.50;;;15.80;99.90;;;;;;5101983;28;20042;-77
2022/09/16 10:12:39;;;;;;;10.05;1.50;;;16.00;99.90;;;;;;5090030;28;20039;-79
2022/09/16 10:15:05;;;;;;;8.77;1.20;;;16.10;99.90;;;;;;5115122;28;20123;-76
2022/09/16 10:17:32;;;;;;;8.50;1.52;;;16.00;99.90;;;;;;5105739;28;20032;-76
2022/09/16 10:20:20;;;;;;;4.45;1.30;;;15.70;99.90;;;;;;5084824;28;20032;-78
2022/09/16 10:23:08;;;;;;;8.60;1.50;;;15.70;99.90;;;;;;5098410;28;20524;-76
2022/09/16 10:25:34;;;;;;;7.28;1.38;;;15.80;99.90;;;;;;5112439;27;20039;-77
2022/09/16 10:28:05;;;;;;;7.13;1.30;;;15.90;99.90;;;;;;5098052;28;20043;-78
2022/09/16 10:30:42;;;;;;;7.47;1.55;;;16.00;99.90;;;;;;5095049;28;20532;-77
2022/09/16 10:33:22;;;;;;;6.85;1.17;;;16.20;99.90;;;;;;5093868;28;20101;-75
2022/09/16 10:35:57;;;;;;;11.13;1.52;;;16.40;99.90;;;;;;5093981;28;20119;-74
2022/09/16 10:38:26;;;;;;;13.43;1.58;;;16.40;99.90;;;;;;5105509;28;20427;-75
2022/09/16 10:41:03;;;;;;;9.18;1.73;;;16.20;99.90;;;;;;5093708;28;20400;-76
2022/09/16 10:43:30;;;;;;;9.52;1.60;;;16.00;99.90;;;;;;5093572;28;20044;-75
2022/09/16 10:45:56;;;;;;;7.45;1.42;;;16.00;99.90;;;;;;5076792;28;20425;-75
2022/09/16 10:48:28;;;;;;;9.13;1.65;;;16.20;99.90;;;;;;5076291;28;20051;-74
2022/09/16 10:50:55;;;;;;;10.07;1.70;;;16.40;99.90;;;;;;5075664;28;20040;-75
2022/09/16 10:53:39;;;;;;;8.52;1.58;;;16.60;99.90;;;;;;5093000;28;20494;-76
2022/09/16 10:56:15;;;;;;;8.95;1.83;;;16.80;99.90;;;;;;5076677;28;20044;-74
2022/09/16 10:58:41;;;;;;;9.35;1.40;;;16.60;99.90;;;;;;5093189;28;20044;-75
2022/09/16 11:01:23;;;;;;;6.07;1.08;;;16.50;99.90;;;;;;5093073;28;20134;-75
2022/09/16 11:03:57;;;;;;;7.78;1.58;;;16.70;99.90;;;;;;5093363;28;20072;-76
2022/09/16 11:06:37;;;;;;;6.88;1.10;;;16.80;99.90;;;;;;5076183;28;20040;-73
2022/09/16 11:09:06;;;;;;;8.68;1.50;;;16.90;98.90;;;;;;5093128;28;20127;-74
2022/09/16 11:12:10;;;;;;;8.05;1.60;;;17.00;99.80;;;;;;5092648;28;20040;-75
2022/09/16 11:14:58;;;;;;;9.50;1.40;;;17.20;99.90;;;;;;5106639;28;20054;-75
2022/09/16 11:18:12;;;;;;;12.75;1.60;;;17.40;99.90;;;;;;5108960;28;20068;-75
2022/09/16 11:20:57;;;;;;;12.73;1.88;;;17.30;99.90;;;;;;5081776;28;20115;-75
2022/09/16 11:23:33;;;;;;;8.07;1.58;;;16.40;99.90;;;;;;5092764;28;20048;-75
2022/09/16 11:26:20;;;;;;;14.10;1.73;;;15.80;99.90;;;;;;5103932;28;20043;-75
2022/09/16 11:29:02;;;;;;;11.20;1.80;;;15.70;99.90;;;;;;5100159;28;20047;-76
2022/09/16 11:31:46;;;;;;;9.48;1.40;;;16.00;99.90;;;;;;5092149;28;20040;-74
2022/09/16 11:34:31;;;;;;;;;;;15.90;99.90;;;;;;5092574;28;20385;-75
2022/09/16 11:37:24;;;;;;;11.40;1.73;;;15.70;99.90;;;;;;5090279;28;20292;-74
2022/09/16 11:39:55;;;;;;;13.45;1.98;;;15.60;99.90;;;;;;5090707;28;20067;-74
2022/09/16 11:42:41;;;;;;;8.07;1.63;;;15.80;99.90;;;;;;5091117;28;20043;-74
2022/09/16 11:45:14;;;;;;;10.13;1.67;;;16.00;99.90;;;;;;5077777;28;20074;-74
2022/09/16 11:47:47;;;;;;;7.43;1.37;;;16.20;99.90;;;;;;5101940;28;20128;-75
2022/09/16 11:50:21;;;;;;;9.32;1.73;;;16.20;99.20;;;;;;5101206;28;20332;-75
2022/09/16 11:53:06;;;;;;;7.55;1.90;;;16.20;99.00;;;;;;5107377;28;20040;-75
2022/09/16 11:55:41;;;;;;;14.50;2.00;;;16.40;99.90;;;;;;5109215;28;20062;-76
2022/09/16 11:58:28;;;;;;;11.45;1.50;;;16.70;99.90;;;;;;5109929;28;20111;-74
2022/09/16 12:00:59;;;;;;;11.13;1.98;;;16.80;99.10;;;;;;5112048;28;20059;-76
2022/09/16 12:03:46;;;;;;;10.65;1.85;;;17.00;98.90;;;;;;5112308;28;20046;-76
2022/09/16 12:06:17;;;;;;;9.38;1.70;;;17.30;99.90;;;;;;5106403;28;20051;-73
2022/09/16 12:09:09;;;;;;;6.90;1.50;;;17.70;99.50;;;;;;5110947;28;20370;-75
2022/09/16 12:12:01;;;;;;;9.02;1.48;;;17.80;99.20;;;;;;5110591;28;20051;-75
2022/09/16 12:14:53;;;;;;;11.52;1.92;;;17.60;98.30;;;;;;5079016;28;20048;-74
2022/09/16 12:17:26;;;;;;;12.07;1.80;;;17.70;97.90;;;;;;5091953;28;20443;-75
2022/09/16 12:20:19;;;;;;;19.27;3.00;;;17.80;97.50;;;;;;5091797;28;20028;-75
2022/09/16 12:23:03;;;;;;;19.20;2.88;;;17.70;98.00;;;;;;5083998;28;20097;-75
2022/09/16 12:25:37;;;;;;;22.70;2.55;;;17.40;98.60;;;;;;5108230;28;20046;-74
2022/09/16 12:28:14;;;;;;;18.70;3.47;;;17.00;98.40;;;;;;5094312;28;20044;-75
2022/09/16 12:30:43;;;;;;;10.60;2.03;;;16.80;99.10;;;;;;5110525;28;20048;-74
2022/09/16 12:33:31;;;;;;;6.78;1.60;;;16.80;99.10;;;;;;5105579;28;20031;-74
2022/09/16 12:36:05;;;;;;;9.35;2.00;;;16.70;98.50;;;;;;5107805;28;20031;-73
2022/09/16 12:38:31;;;;;;;;;;;16.80;98.50;;;;;;5090292;28;20115;-77
2022/09/16 12:41:21;;;;;;;12.32;2.38;;;16.90;98.70;;;;;;5106628;28;19955;-74
2022/09/16 12:43:56;;;;;;;10.82;2.35;;;16.90;98.50;;;;;;5100028;28;20039;-75
2022/09/16 12:46:46;;;;;;;13.48;2.30;;;17.10;99.40;;;;;;5105823;28;20058;-75
2022/09/16 12:49:31;;;;;;;9.07;2.10;;;17.10;99.60;;;;;;5094778;28;20055;-75
2022/09/16 12:52:16;;;;;;;9.93;2.08;;;16.90;99.90;;;;;;5078701;28;20055;-75
2022/09/16 12:55:21;;;;;;;7.47;1.73;;;17.10;99.90;;;;;;5102649;28;20039;-74
2022/09/16 12:57:47;;;;;;;6.18;1.77;;;17.10;99.90;;;;;;5107707;28;20039;-74
2022/09/16 13:00:35;;;;;;;10.13;1.70;;;17.00;99.70;;;;;;5095789;28;20381;-74
2022/09/16 13:03:18;;;;;;;8.57;2.28;;;16.80;99.70;;;;;;5099724;28;20055;-75
2022/09/16 13:05:52;;;;;;;8.07;1.58;;;16.70;99.90;;;;;;5102960;28;20506;-79
2022/09/16 13:08:35;;;;;;;6.43;1.27;;;16.60;99.90;;;;;;5103914;28;20404;-75
2022/09/16 13:11:13;;;;;;;9.23;1.52;;;16.50;99.90;;;;;;5101038;28;20051;-75
2022/09/16 13:13:41;;;;;;;4.95;1.08;;;16.50;99.90;;;;;;5099303;28;20051;-74
2022/09/16 13:16:08;;;;;;;7.85;0.80;;;16.40;98.80;;;;;;5106640;28;20031;-74
2022/09/16 13:18:43;;;;;;;4.70;0.90;;;16.30;99.10;;;;;;5094331;28;20032;-73